Dernières infos :  

1/12/2018  Mise à jour des tableaux d'analyses décadaires : rubrique climatologie
1/12/2018  Mise à jour des tableaux d'analyses décadaires, mensuelles et annuelles : rubrique climatologie
Mise en ligne de la synthèse climatologique de NOVEMBRE 2018 : 
CLIQUEZ ICI   

Si l'entête du tableau ne s'affiche pas correctement, => actualisez la page (F5 avec Internet Explorer, Chrome...).
Utilisez l'ascenseur sur la droite des lignes du tableau pour faire défiler verticalement les jours du mois.

TABLEAU DES DONNEES COMPLETES NOAA de NOVEMBRE 2018

DATE TEMPERATURE
sous abri
TEMPARATURE 
au sol
VENT  et  Indice de Refroidissement Eolien  PRECIPITATIONS (en mm/m2)
et Intensité
PRESSION ATMOSPHERIQUE (en hPa) HUMIDITE de l'AIR RADIATIONS SOLAIRES (en W/m2)
Mini Moy. Maxi Mini Moy. Maxi Moyen Rafale I.R.E.
Minii
Précip. jour Cumul mois Intensité Maxi Mini Moy. Maxi Mini Moy. Maxi Pic maxi du jour Total jour
01/11/18 6.8° 10.1° 13.3° 3.9° 9.3° 15° 4.7km/h dir SSE 33.8km/h dir SSE 6.8° 1.8 1.8 1.6mm/h 1010 1013 1019.4 76% 89.4% 96% 457 16 915
02/11/18 3.6° 8.4° 13.4° 2.2° 15.6° 5.1km/h dir ONO 24.1km/h dir ONO 3.6° 0.2 2 1017.3 1021.1 1025 76% 90.4% 97% 617 27 473
03/11/18 6.7° 8.3° 9.3° 3.9° 9.4° 5km/h dir N 30.6km/h dir NNE 4.4° 0 2 1020.4 1023.1 1024.5 88% 91.5% 93% 142 7 183
04/11/18 5.6° 8.1° 9.4° 3.3° 7.8° 10° 0.2km/h dir SE 11.3km/h dir NE 5.6° 0 2 1009.3 1014 1020.3 90% 93.5% 95% 202 8 003
05/11/18 2.7° 8.3° 14.1° 1.7° 7.6° 15° 1km/h dir O 16.1km/h dir ESE 2.7° 0.2 2.2 1006 1007.4 1009.5 85% 93.1% 97% 594 19 724
06/11/18 7.8° 10.9° 13.8° 5.6° 9.8° 12.8° 4.2km/h dir ESE 33.8km/h dir SSE 7.6° 3.2 5.4 2.8mm/h 1004.1 1007.7 1010.1 80% 90.9% 95% 116 5 639
07/11/18 9.1° 11.3° 13.9° 7.8° 10.5° 13.9° 7.2km/h dir SE 43.5km/h dir SSE 7.8° 17.6 23 10.2mm/h 1008.3 1011.7 1018.8 70% 86.5% 95% 200 7 892
08/11/18 6.2° 10.3° 14.5° 3.9° 9.5° 16.1° 0.6km/h dir NNE 14.5km/h dir ONO 6.3° 0.2 23.2 1014.9 1018.5 1020.8 75% 90.8% 97% 527 20 933
09/11/18 7.8° 11.9° 18.4° 6.1° 11.1° 19.4° 1.3km/h dir SE 20.9km/h dir ESE 7.8° 0.6 23.8 1010.7 1013.4 1015.1 62% 86.5% 96% 469 22 744
10/11/18 12.3° 13.7° 14.9° 11.1° 13° 14.4° 10.9km/h dir SSE 43.5km/h dir SE 11° 4.4 28.2 4.2mm/h 1006.5 1008.2 1010.7 74% 83.9% 92% 153 6 538
11/11/18 11.9° 14.7° 17.7° 10.6° 13.9° 17.8° 9.7km/h dir SSE 41.8km/h dir SSE 11.3° 1.8 30 1.6mm/h 1008.9 1011.8 1014 69% 81.5% 94% 538 15 390
12/11/18 12.7° 17.1° 20.9° 10° 16.2° 21.7° 14km/h dir SSE 56.3km/h dir SSE 12.8° 0 30 1012.2 1016 1020.3 62% 73.9% 88% 533 26 318
13/11/18 8.9° 11.8° 15.6° 7.2° 11.2° 15° 1.6km/h dir SE 27.4km/h dir ONO 8.9° 9.2 39.2 10.4mm/h 1020.2 1026.9 1029.4 76% 91.1% 96% 156 6 300
14/11/18 8.4° 10.3° 15.1° 7.8° 10.2° 17.2° 0km/h dir 0km/h dir --- 8.5° 0.4 39.6 1024.6 1026.6 1029.2 86% 95.2% 97% 487 12 600
15/11/18 4.7° 9.5° 16.6° 3.3° 17.8° 0km/h dir 0km/h dir --- 4.7° 0.4 40 1022 1023.5 1024.6 78% 93.1% 97% 392 22 430
16/11/18 6.8° 7.6° 8.4° 6.7° 7.5° 8.9° 0km/h dir 0km/h dir --- 6.8° 1 41 1022.6 1023.5 1024.4 96% 96.8% 97% 95 4 343
17/11/18 4.6° 6.4° 7.1° 3.3° 6.2° 7.2° 1.8km/h dir NNE 14.5km/h dir N 3.4° 0.2 41.2 1019.1 1020.8 1022.9 92% 95.9% 97% 111 4 308
18/11/18 0.5° 2.9° 5.1° -1.1° 2.7° 1.9km/h dir N 14.5km/h dir ONO 0.1° 0.2 41.4 1014.3 1018.7 1021 92% 95.7% 97% 146 4 602
19/11/18 0.6° 1.7° 3.2° 0.6° 1.5° 2.8° 2.1km/h dir O 14.5km/h dir O -2° 0.2 41.6 1003.3 1008.1 1014.9 89% 93.4% 96% 54 2 761
20/11/18 1.2° 3.8° 6.9° 0.6° 3.5° 7.2° 2.6km/h dir SSE 29km/h dir SSE 1.2° 7.8 49.4 3.2mm/h 1001.5 1002.8 1006.7 80% 91.2% 95% 385 8 545
21/11/18 3.4° 4.8° 6.1° 3.3° 4.7° 6.7° 1.3km/h dir O 16.1km/h dir ENE 1.8° 3.2 52.6 3.4mm/h 1006.7 1011.8 1016.3 94% 95.9% 97% 120 4 911
22/11/18 2.8° 4.6° 8.1° 2.8° 4.5° 9.4° 1.8km/h dir E 9.7km/h dir NE 2.6° 0.2 52.8 1016.3 1017.4 1018.8 94% 96.2% 97% 323 9 626
23/11/18 1.1° 4.1° 6.7° 0.6° 6.7° 1.9km/h dir NNE 14.5km/h dir SO -0.1° 19.4 72.2 7.6mm/h 1010.3 1014.7 1018.3 96% 96.9% 97% 123 5 469
24/11/18 2.4° 7.7° 13.3° 0.6° 6.3° 14.4° 3.2km/h dir SE 19.3km/h dir SSE 2.6° 0.2 72.4 1010.9 1013.2 1014.7 72% 91.4% 98% 394 21 510
25/11/18 0.1° 4.1° -1.7° 3.2° 8.3° 3.1km/h dir SSE 38.6km/h dir SSE -0.4° 2 74.4 3.4mm/h 1003.8 1006.2 1010.9 90% 94.6% 97% 253 6 847
26/11/18 2.4° 5.1° 6.3° 4.6° 6.1° 3.9km/h dir ONO 19.3km/h dir N 2.4° 1.2 75.6 0.8mm/h 1003.6 1007.2 1014.4 95% 95.9% 97% 83 3 251
27/11/18 1.3° 5.4° 7.6° 4.8° 7.8° 3.2km/h dir ONO 17.7km/h dir ONO 0.9° 9.2 84.8 6.8mm/h 1014.4 1019.1 1022.6 86% 94.3% 96% 146 6 071
28/11/18 1.2° 4.6° 9.9° 3.9° 10.6° 2.7km/h dir SSE 12.9km/h dir SSE 0.2 85 1021.5 1022.3 1023.5 78% 92.5% 97% 392 12 756
29/11/18 4.4° 9.5° 14.8° 3.3° 8.6° 14.4° 10.9km/h dir SE 49.9km/h dir 0 3.1° 0 85 1015.6 1017.7 1022 43% 69.2% 95% 408 15 498
30/11/18 6.8° 8.3° 10.3° 4.4° 7.6° 9.4° 3.1km/h dir SE 25.7km/h dir 0 6.4° 7.8 92.8 4mm/h 1015.2 1016.6 1019.2 72% 89.1% 96% 105 3 798

RETOUR ACCUEIL


Date de création : 01/12/2018 : 08:52
Catégorie : ANNEE 2018 - MOIS PASSES - NOVEMBRE 2018
Page lue 26 fois


Réactions à cet article

Personne n'a encore laissé de commentaire.
Soyez donc le premier !